Thomas, Oklahoma
Current Conditions -  °F | °C
As of 2:15 PM on Thursday 30 Oct 2014 (Local Time) from KOJA Reporting Station
Clear Clear  
Wind Chill: 72°   Ceiling: Unl
Heat Index: 72°   Visibility: 10mi
Dew Point: 34°   Wind: 18mph
Humidity: 25%   Direction: 30°NNE
Pressure: 30.16"   Gusts: 22mph
Location:  35.74°N, 98.75°W
Report Text: KOJA 301915Z AUTO 03016G19KT 10SM CLR 22/01 A3016 RMK AO2
Loading
Personal Weather Stations






























Interactive Weather Map
Tropical Storm Tracking
New forecast layout! Learn more

10-Day Weather Forecast

Advertisements
Track Severe Weather on mobile